sensor_id;sensor_type;location;lat;lon;timestamp;temperature;humidity
827;DHT22;395;48.132;11.608;2023-11-22T00:01:37;8.10;3.30
827;DHT22;395;48.132;11.608;2023-11-22T00:04:03;8.00;3.00
827;DHT22;395;48.132;11.608;2023-11-22T00:06:28;7.60;8.70
827;DHT22;395;48.132;11.608;2023-11-22T00:08:55;7.70;9.40
827;DHT22;395;48.132;11.608;2023-11-22T00:11:21;7.70;8.00
827;DHT22;395;48.132;11.608;2023-11-22T00:13:46;7.70;8.60
827;DHT22;395;48.132;11.608;2023-11-22T00:16:12;7.90;8.70
827;DHT22;395;48.132;11.608;2023-11-22T00:18:38;8.00;6.60
827;DHT22;395;48.132;11.608;2023-11-22T00:21:04;7.80;5.00
827;DHT22;395;48.132;11.608;2023-11-22T00:23:30;7.80;6.60
827;DHT22;395;48.132;11.608;2023-11-22T00:25:56;7.90;8.10
827;DHT22;395;48.132;11.608;2023-11-22T00:28:24;7.90;4.30
827;DHT22;395;48.132;11.608;2023-11-22T00:30:50;7.90;6.20
827;DHT22;395;48.132;11.608;2023-11-22T00:33:16;7.90;6.30
827;DHT22;395;48.132;11.608;2023-11-22T00:35:43;8.00;6.30
827;DHT22;395;48.132;11.608;2023-11-22T00:38:09;8.00;3.00
827;DHT22;395;48.132;11.608;2023-11-22T00:40:34;7.90;4.50
827;DHT22;395;48.132;11.608;2023-11-22T00:43:00;7.90;4.00
827;DHT22;395;48.132;11.608;2023-11-22T00:45:26;8.00;5.70
827;DHT22;395;48.132;11.608;2023-11-22T00:47:51;7.90;4.00
827;DHT22;395;48.132;11.608;2023-11-22T00:50:17;7.70;5.80
827;DHT22;395;48.132;11.608;2023-11-22T00:52:47;7.70;7.60
827;DHT22;395;48.132;11.608;2023-11-22T00:55:13;7.50;7.10
827;DHT22;395;48.132;11.608;2023-11-22T00:57:39;7.50;9.30
827;DHT22;395;48.132;11.608;2023-11-22T01:00:05;7.40;8.70
827;DHT22;395;48.132;11.608;2023-11-22T01:02:34;7.50;9.80
827;DHT22;395;48.132;11.608;2023-11-22T01:05:02;7.60;9.40
827;DHT22;395;48.132;11.608;2023-11-22T01:07:27;7.60;7.90
827;DHT22;395;48.132;11.608;2023-11-22T01:09:53;7.50;7.20
827;DHT22;395;48.132;11.608;2023-11-22T01:12:19;7.60;7.10
827;DHT22;395;48.132;11.608;2023-11-22T01:14:45;7.50;7.60
827;DHT22;395;48.132;11.608;2023-11-22T01:17:11;7.40;8.00
827;DHT22;395;48.132;11.608;2023-11-22T01:19:36;7.50;9.50
827;DHT22;395;48.132;11.608;2023-11-22T01:22:02;7.70;9.30
827;DHT22;395;48.132;11.608;2023-11-22T01:24:29;7.80;6.40
827;DHT22;395;48.132;11.608;2023-11-22T01:26:55;7.70;3.60
827;DHT22;395;48.132;11.608;2023-11-22T01:29:21;7.70;4.70
827;DHT22;395;48.132;11.608;2023-11-22T01:31:46;7.70;2.80
827;DHT22;395;48.132;11.608;2023-11-22T01:34:13;7.70;2.80
827;DHT22;395;48.132;11.608;2023-11-22T01:36:42;7.70;3.40
827;DHT22;395;48.132;11.608;2023-11-22T01:39:11;7.70;3.90
827;DHT22;395;48.132;11.608;2023-11-22T01:41:40;7.80;4.70
827;DHT22;395;48.132;11.608;2023-11-22T01:44:08;7.90;5.00
827;DHT22;395;48.132;11.608;2023-11-22T01:46:34;7.80;1.10
827;DHT22;395;48.132;11.608;2023-11-22T01:49:00;7.90;2.80
827;DHT22;395;48.132;11.608;2023-11-22T01:51:26;8.00;2.90
827;DHT22;395;48.132;11.608;2023-11-22T01:53:55;8.00;1.00
827;DHT22;395;48.132;11.608;2023-11-22T01:56:26;7.80;1.00
827;DHT22;395;48.132;11.608;2023-11-22T01:58:57;7.70;2.10
827;DHT22;395;48.132;11.608;2023-11-22T02:01:26;7.50;4.90
827;DHT22;395;48.132;11.608;2023-11-22T02:03:52;7.60;5.70
827;DHT22;395;48.132;11.608;2023-11-22T02:06:19;7.60;4.90
827;DHT22;395;48.132;11.608;2023-11-22T02:08:47;7.70;4.20
827;DHT22;395;48.132;11.608;2023-11-22T02:11:13;7.60;1.40
827;DHT22;395;48.132;11.608;2023-11-22T02:13:38;7.70;1.00
827;DHT22;395;48.132;11.608;2023-11-22T02:16:04;7.60;1.00
827;DHT22;395;48.132;11.608;2023-11-22T02:18:30;7.40;1.00
827;DHT22;395;48.132;11.608;2023-11-22T02:20:56;7.30;1.00
827;DHT22;395;48.132;11.608;2023-11-22T02:23:22;7.40;1.00
827;DHT22;395;48.132;11.608;2023-11-22T02:25:48;7.40;1.00
827;DHT22;395;48.132;11.608;2023-11-22T02:28:14;7.30;1.00
827;DHT22;395;48.132;11.608;2023-11-22T02:30:40;7.00;1.00
827;DHT22;395;48.132;11.608;2023-11-22T02:33:05;7.00;1.00
827;DHT22;395;48.132;11.608;2023-11-22T02:35:32;6.90;1.00
827;DHT22;395;48.132;11.608;2023-11-22T02:37:58;7.00;1.00
827;DHT22;395;48.132;11.608;2023-11-22T02:40:24;6.70;1.00
827;DHT22;395;48.132;11.608;2023-11-22T02:42:51;6.20;1.00
827;DHT22;395;48.132;11.608;2023-11-22T02:45:24;5.80;1.00
827;DHT22;395;48.132;11.608;2023-11-22T02:47:49;5.70;1.00
827;DHT22;395;48.132;11.608;2023-11-22T02:50:16;5.70;1.00
827;DHT22;395;48.132;11.608;2023-11-22T02:52:42;5.70;1.00
827;DHT22;395;48.132;11.608;2023-11-22T02:55:09;5.70;1.00
827;DHT22;395;48.132;11.608;2023-11-22T02:57:35;5.40;1.00
827;DHT22;395;48.132;11.608;2023-11-22T03:00:03;5.60;1.00
827;DHT22;395;48.132;11.608;2023-11-22T03:02:29;5.60;1.00
827;DHT22;395;48.132;11.608;2023-11-22T03:04:57;5.70;1.00
827;DHT22;395;48.132;11.608;2023-11-22T03:07:25;5.70;1.00
827;DHT22;395;48.132;11.608;2023-11-22T03:09:50;5.90;1.00
827;DHT22;395;48.132;11.608;2023-11-22T03:12:16;5.40;1.00
827;DHT22;395;48.132;11.608;2023-11-22T03:14:43;5.50;1.00
827;DHT22;395;48.132;11.608;2023-11-22T03:17:09;5.30;1.00
827;DHT22;395;48.132;11.608;2023-11-22T03:19:34;5.30;1.00
827;DHT22;395;48.132;11.608;2023-11-22T03:22:01;5.20;1.00
827;DHT22;395;48.132;11.608;2023-11-22T03:24:29;5.00;1.00
827;DHT22;395;48.132;11.608;2023-11-22T03:26:55;4.80;1.00
827;DHT22;395;48.132;11.608;2023-11-22T03:29:24;4.80;1.00
827;DHT22;395;48.132;11.608;2023-11-22T03:31:50;4.70;1.00
827;DHT22;395;48.132;11.608;2023-11-22T03:34:17;4.80;1.00
827;DHT22;395;48.132;11.608;2023-11-22T03:36:42;4.90;1.00
827;DHT22;395;48.132;11.608;2023-11-22T03:39:08;5.00;1.00
827;DHT22;395;48.132;11.608;2023-11-22T03:41:36;4.90;1.00
827;DHT22;395;48.132;11.608;2023-11-22T03:44:03;5.10;1.00
827;DHT22;395;48.132;11.608;2023-11-22T03:46:30;5.30;1.00
827;DHT22;395;48.132;11.608;2023-11-22T03:48:56;5.60;1.00
827;DHT22;395;48.132;11.608;2023-11-22T03:51:21;5.50;1.00
827;DHT22;395;48.132;11.608;2023-11-22T03:53:47;5.60;1.00
827;DHT22;395;48.132;11.608;2023-11-22T03:56:13;5.80;1.00
827;DHT22;395;48.132;11.608;2023-11-22T03:58:40;6.00;1.00
827;DHT22;395;48.132;11.608;2023-11-22T04:01:05;6.00;1.00
827;DHT22;395;48.132;11.608;2023-11-22T04:03:31;6.00;1.00
827;DHT22;395;48.132;11.608;2023-11-22T04:05:57;6.10;1.00
827;DHT22;395;48.132;11.608;2023-11-22T04:08:23;5.90;1.00
827;DHT22;395;48.132;11.608;2023-11-22T04:10:49;5.60;1.00
827;DHT22;395;48.132;11.608;2023-11-22T04:13:16;5.40;1.00
827;DHT22;395;48.132;11.608;2023-11-22T04:15:41;5.60;1.00
827;DHT22;395;48.132;11.608;2023-11-22T04:18:07;5.50;1.00
827;DHT22;395;48.132;11.608;2023-11-22T04:20:33;5.50;1.00
827;DHT22;395;48.132;11.608;2023-11-22T04:22:58;6.10;1.00
827;DHT22;395;48.132;11.608;2023-11-22T04:25:24;5.80;1.00
827;DHT22;395;48.132;11.608;2023-11-22T04:27:49;6.00;1.00
827;DHT22;395;48.132;11.608;2023-11-22T04:30:16;5.60;1.00
827;DHT22;395;48.132;11.608;2023-11-22T04:32:43;5.40;1.00
827;DHT22;395;48.132;11.608;2023-11-22T04:35:09;5.40;1.00
827;DHT22;395;48.132;11.608;2023-11-22T04:37:36;5.60;1.00
827;DHT22;395;48.132;11.608;2023-11-22T04:40:02;5.50;1.00
827;DHT22;395;48.132;11.608;2023-11-22T04:42:30;5.70;1.00
827;DHT22;395;48.132;11.608;2023-11-22T04:44:56;5.80;1.00
827;DHT22;395;48.132;11.608;2023-11-22T04:47:21;5.70;1.00
827;DHT22;395;48.132;11.608;2023-11-22T04:49:48;5.60;1.00
827;DHT22;395;48.132;11.608;2023-11-22T04:52:14;5.50;1.00
827;DHT22;395;48.132;11.608;2023-11-22T04:54:40;5.50;1.00
827;DHT22;395;48.132;11.608;2023-11-22T04:57:05;5.40;1.00
827;DHT22;395;48.132;11.608;2023-11-22T04:59:32;5.10;1.00
827;DHT22;395;48.132;11.608;2023-11-22T05:01:57;5.20;1.00
827;DHT22;395;48.132;11.608;2023-11-22T05:04:24;5.20;1.00
827;DHT22;395;48.132;11.608;2023-11-22T05:06:53;5.10;1.00
827;DHT22;395;48.132;11.608;2023-11-22T05:09:19;5.10;1.00
827;DHT22;395;48.132;11.608;2023-11-22T05:11:45;4.80;1.00
827;DHT22;395;48.132;11.608;2023-11-22T05:14:11;4.90;1.00
827;DHT22;395;48.132;11.608;2023-11-22T05:16:37;5.00;1.00
827;DHT22;395;48.132;11.608;2023-11-22T05:19:02;5.10;1.00
827;DHT22;395;48.132;11.608;2023-11-22T05:21:28;5.10;1.00
827;DHT22;395;48.132;11.608;2023-11-22T05:23:54;4.90;1.00
827;DHT22;395;48.132;11.608;2023-11-22T05:26:20;4.60;1.00
827;DHT22;395;48.132;11.608;2023-11-22T05:28:47;4.60;1.00
827;DHT22;395;48.132;11.608;2023-11-22T05:31:13;4.70;1.00
827;DHT22;395;48.132;11.608;2023-11-22T05:33:40;4.70;1.00
827;DHT22;395;48.132;11.608;2023-11-22T05:36:06;4.60;1.00
827;DHT22;395;48.132;11.608;2023-11-22T05:38:32;4.80;1.00
827;DHT22;395;48.132;11.608;2023-11-22T05:41:01;4.90;1.00
827;DHT22;395;48.132;11.608;2023-11-22T05:43:27;4.80;1.00
827;DHT22;395;48.132;11.608;2023-11-22T05:45:53;4.90;1.00
827;DHT22;395;48.132;11.608;2023-11-22T05:48:19;4.90;1.00
827;DHT22;395;48.132;11.608;2023-11-22T05:50:46;4.80;1.00
827;DHT22;395;48.132;11.608;2023-11-22T05:53:12;5.00;1.00
827;DHT22;395;48.132;11.608;2023-11-22T05:55:38;5.00;1.00
827;DHT22;395;48.132;11.608;2023-11-22T05:58:04;5.00;1.00
827;DHT22;395;48.132;11.608;2023-11-22T06:00:29;4.80;1.00
827;DHT22;395;48.132;11.608;2023-11-22T06:02:55;4.70;1.00
827;DHT22;395;48.132;11.608;2023-11-22T06:05:21;4.60;1.00
827;DHT22;395;48.132;11.608;2023-11-22T06:07:47;4.40;1.00
827;DHT22;395;48.132;11.608;2023-11-22T06:10:13;4.50;1.00
827;DHT22;395;48.132;11.608;2023-11-22T06:12:41;4.50;1.00
827;DHT22;395;48.132;11.608;2023-11-22T06:15:07;4.60;1.00
827;DHT22;395;48.132;11.608;2023-11-22T06:17:33;4.60;1.00
827;DHT22;395;48.132;11.608;2023-11-22T06:19:59;4.60;1.00
827;DHT22;395;48.132;11.608;2023-11-22T06:22:24;4.60;1.00
827;DHT22;395;48.132;11.608;2023-11-22T06:24:50;4.80;1.00
827;DHT22;395;48.132;11.608;2023-11-22T06:27:16;4.90;1.00
827;DHT22;395;48.132;11.608;2023-11-22T06:29:41;4.80;1.00
827;DHT22;395;48.132;11.608;2023-11-22T06:32:10;4.70;1.00
827;DHT22;395;48.132;11.608;2023-11-22T06:34:36;4.30;1.00
827;DHT22;395;48.132;11.608;2023-11-22T06:37:02;4.40;1.00
827;DHT22;395;48.132;11.608;2023-11-22T06:39:28;4.40;1.00
827;DHT22;395;48.132;11.608;2023-11-22T06:41:54;4.40;1.00
827;DHT22;395;48.132;11.608;2023-11-22T06:44:21;4.50;1.00
827;DHT22;395;48.132;11.608;2023-11-22T06:46:46;4.70;1.00
827;DHT22;395;48.132;11.608;2023-11-22T06:49:13;4.80;1.00
827;DHT22;395;48.132;11.608;2023-11-22T06:51:39;4.80;1.00
827;DHT22;395;48.132;11.608;2023-11-22T06:54:05;4.80;1.00
827;DHT22;395;48.132;11.608;2023-11-22T06:56:32;4.80;1.00
827;DHT22;395;48.132;11.608;2023-11-22T06:58:58;4.90;1.00
827;DHT22;395;48.132;11.608;2023-11-22T07:01:24;5.00;1.00
827;DHT22;395;48.132;11.608;2023-11-22T07:03:52;5.20;1.00
827;DHT22;395;48.132;11.608;2023-11-22T07:06:18;5.00;1.00
827;DHT22;395;48.132;11.608;2023-11-22T07:08:44;4.70;1.00
827;DHT22;395;48.132;11.608;2023-11-22T07:11:11;4.70;1.00
827;DHT22;395;48.132;11.608;2023-11-22T07:13:36;4.60;1.00
827;DHT22;395;48.132;11.608;2023-11-22T07:16:05;4.60;1.00
827;DHT22;395;48.132;11.608;2023-11-22T07:18:32;4.90;1.00
827;DHT22;395;48.132;11.608;2023-11-22T07:20:59;4.80;1.00
827;DHT22;395;48.132;11.608;2023-11-22T07:23:25;4.80;1.00
827;DHT22;395;48.132;11.608;2023-11-22T07:25:54;4.80;1.00
827;DHT22;395;48.132;11.608;2023-11-22T07:28:20;4.70;1.00
827;DHT22;395;48.132;11.608;2023-11-22T07:30:46;4.80;1.00
827;DHT22;395;48.132;11.608;2023-11-22T07:33:14;4.60;1.00
827;DHT22;395;48.132;11.608;2023-11-22T07:35:43;4.50;1.00
827;DHT22;395;48.132;11.608;2023-11-22T07:38:09;4.20;1.00
827;DHT22;395;48.132;11.608;2023-11-22T07:40:36;4.20;1.00
827;DHT22;395;48.132;11.608;2023-11-22T07:43:02;4.20;1.00
827;DHT22;395;48.132;11.608;2023-11-22T07:45:30;4.30;1.00
827;DHT22;395;48.132;11.608;2023-11-22T07:47:57;4.40;1.00
827;DHT22;395;48.132;11.608;2023-11-22T07:50:25;4.30;1.00
827;DHT22;395;48.132;11.608;2023-11-22T07:52:51;4.00;1.00
827;DHT22;395;48.132;11.608;2023-11-22T07:55:17;4.30;1.00
827;DHT22;395;48.132;11.608;2023-11-22T07:57:47;4.60;1.00
827;DHT22;395;48.132;11.608;2023-11-22T08:00:14;4.50;1.00
827;DHT22;395;48.132;11.608;2023-11-22T08:02:45;4.50;1.00
827;DHT22;395;48.132;11.608;2023-11-22T08:05:11;4.60;1.00
827;DHT22;395;48.132;11.608;2023-11-22T08:07:38;4.40;1.00
827;DHT22;395;48.132;11.608;2023-11-22T08:10:07;4.30;1.00
827;DHT22;395;48.132;11.608;2023-11-22T08:12:48;4.20;1.00
827;DHT22;395;48.132;11.608;2023-11-22T08:15:15;4.10;1.00
827;DHT22;395;48.132;11.608;2023-11-22T08:17:42;4.00;1.00
827;DHT22;395;48.132;11.608;2023-11-22T08:20:10;4.10;1.00
827;DHT22;395;48.132;11.608;2023-11-22T08:22:44;4.00;1.00
827;DHT22;395;48.132;11.608;2023-11-22T08:25:11;3.90;1.00
827;DHT22;395;48.132;11.608;2023-11-22T08:27:41;3.80;1.00
827;DHT22;395;48.132;11.608;2023-11-22T08:30:08;3.80;1.00
827;DHT22;395;48.132;11.608;2023-11-22T08:32:42;3.90;1.00
827;DHT22;395;48.132;11.608;2023-11-22T08:35:11;4.00;1.00
827;DHT22;395;48.132;11.608;2023-11-22T08:37:40;3.90;1.00
827;DHT22;395;48.132;11.608;2023-11-22T08:40:07;3.80;1.00
827;DHT22;395;48.132;11.608;2023-11-22T08:42:34;4.00;1.00
827;DHT22;395;48.132;11.608;2023-11-22T08:45:02;4.20;1.00
827;DHT22;395;48.132;11.608;2023-11-22T08:47:28;4.40;1.00
827;DHT22;395;48.132;11.608;2023-11-22T08:49:54;4.30;1.00
827;DHT22;395;48.132;11.608;2023-11-22T08:52:20;4.00;1.00
827;DHT22;395;48.132;11.608;2023-11-22T08:54:45;3.90;1.00
827;DHT22;395;48.132;11.608;2023-11-22T08:57:11;3.90;1.00
827;DHT22;395;48.132;11.608;2023-11-22T08:59:37;4.10;1.00
827;DHT22;395;48.132;11.608;2023-11-22T09:02:04;4.30;1.00
827;DHT22;395;48.132;11.608;2023-11-22T09:04:30;4.10;1.00
827;DHT22;395;48.132;11.608;2023-11-22T09:06:57;4.00;1.00
827;DHT22;395;48.132;11.608;2023-11-22T09:09:23;3.80;1.00
827;DHT22;395;48.132;11.608;2023-11-22T09:11:57;3.70;1.00
827;DHT22;395;48.132;11.608;2023-11-22T09:14:23;3.70;1.00
827;DHT22;395;48.132;11.608;2023-11-22T09:16:50;3.80;1.00
827;DHT22;395;48.132;11.608;2023-11-22T09:19:23;4.00;1.00
827;DHT22;395;48.132;11.608;2023-11-22T09:21:51;4.00;1.00
827;DHT22;395;48.132;11.608;2023-11-22T09:24:17;4.40;1.00
827;DHT22;395;48.132;11.608;2023-11-22T09:26:43;4.00;1.00
827;DHT22;395;48.132;11.608;2023-11-22T09:29:09;3.80;1.00
827;DHT22;395;48.132;11.608;2023-11-22T09:31:39;4.00;1.00
827;DHT22;395;48.132;11.608;2023-11-22T09:34:05;4.10;1.00
827;DHT22;395;48.132;11.608;2023-11-22T09:36:30;4.30;1.00
827;DHT22;395;48.132;11.608;2023-11-22T09:38:59;4.40;1.00
827;DHT22;395;48.132;11.608;2023-11-22T09:41:25;4.30;1.00
827;DHT22;395;48.132;11.608;2023-11-22T09:43:53;4.40;1.00
827;DHT22;395;48.132;11.608;2023-11-22T09:46:19;4.70;1.00
827;DHT22;395;48.132;11.608;2023-11-22T09:48:48;4.80;1.00
827;DHT22;395;48.132;11.608;2023-11-22T09:51:31;4.70;1.00
827;DHT22;395;48.132;11.608;2023-11-22T09:53:59;4.70;1.00
827;DHT22;395;48.132;11.608;2023-11-22T09:56:30;4.50;1.00
827;DHT22;395;48.132;11.608;2023-11-22T09:58:58;4.30;1.00
827;DHT22;395;48.132;11.608;2023-11-22T10:01:27;4.20;1.00
827;DHT22;395;48.132;11.608;2023-11-22T10:03:54;3.90;1.00
827;DHT22;395;48.132;11.608;2023-11-22T10:06:20;3.80;1.00
827;DHT22;395;48.132;11.608;2023-11-22T10:08:46;4.10;1.00
827;DHT22;395;48.132;11.608;2023-11-22T10:11:15;4.30;1.00
827;DHT22;395;48.132;11.608;2023-11-22T10:13:50;4.50;1.00
827;DHT22;395;48.132;11.608;2023-11-22T10:16:16;4.70;1.00
827;DHT22;395;48.132;11.608;2023-11-22T10:18:46;4.90;1.00
827;DHT22;395;48.132;11.608;2023-11-22T10:23:47;4.80;1.00
827;DHT22;395;48.132;11.608;2023-11-22T10:26:17;4.80;1.00
827;DHT22;395;48.132;11.608;2023-11-22T10:28:43;4.80;1.00
827;DHT22;395;48.132;11.608;2023-11-22T10:31:09;4.80;1.00
827;DHT22;395;48.132;11.608;2023-11-22T10:33:42;4.60;1.00
827;DHT22;395;48.132;11.608;2023-11-22T10:36:09;4.80;1.00
827;DHT22;395;48.132;11.608;2023-11-22T10:38:35;5.00;1.00
827;DHT22;395;48.132;11.608;2023-11-22T10:41:08;4.80;1.00
827;DHT22;395;48.132;11.608;2023-11-22T10:43:37;4.90;1.00
827;DHT22;395;48.132;11.608;2023-11-22T10:46:03;4.90;1.00
827;DHT22;395;48.132;11.608;2023-11-22T10:48:34;4.90;1.00
827;DHT22;395;48.132;11.608;2023-11-22T10:51:01;4.80;1.00
827;DHT22;395;48.132;11.608;2023-11-22T10:53:36;4.90;1.00
827;DHT22;395;48.132;11.608;2023-11-22T10:56:15;5.00;1.00
827;DHT22;395;48.132;11.608;2023-11-22T10:58:51;4.90;1.00
827;DHT22;395;48.132;11.608;2023-11-22T11:01:19;5.10;1.00
827;DHT22;395;48.132;11.608;2023-11-22T11:03:56;5.20;1.00
827;DHT22;395;48.132;11.608;2023-11-22T11:06:31;5.40;1.00
827;DHT22;395;48.132;11.608;2023-11-22T11:09:00;5.30;1.00
827;DHT22;395;48.132;11.608;2023-11-22T11:11:28;5.40;1.00
827;DHT22;395;48.132;11.608;2023-11-22T11:13:55;5.50;1.00
827;DHT22;395;48.132;11.608;2023-11-22T11:16:21;5.60;1.00
827;DHT22;395;48.132;11.608;2023-11-22T11:18:48;5.60;1.00
827;DHT22;395;48.132;11.608;2023-11-22T11:21:15;5.50;1.00
827;DHT22;395;48.132;11.608;2023-11-22T11:23:41;5.50;1.00
827;DHT22;395;48.132;11.608;2023-11-22T11:26:19;5.40;1.00
827;DHT22;395;48.132;11.608;2023-11-22T11:28:49;5.20;1.00
827;DHT22;395;48.132;11.608;2023-11-22T11:31:16;5.00;1.00
827;DHT22;395;48.132;11.608;2023-11-22T11:34:00;5.20;1.00
827;DHT22;395;48.132;11.608;2023-11-22T11:36:28;5.40;1.00
827;DHT22;395;48.132;11.608;2023-11-22T11:38:55;5.40;1.00
827;DHT22;395;48.132;11.608;2023-11-22T11:41:30;5.50;1.00
827;DHT22;395;48.132;11.608;2023-11-22T11:43:56;5.50;1.00
827;DHT22;395;48.132;11.608;2023-11-22T11:46:26;5.50;1.00
827;DHT22;395;48.132;11.608;2023-11-22T11:48:53;5.50;1.00
827;DHT22;395;48.132;11.608;2023-11-22T11:51:24;5.60;1.00
827;DHT22;395;48.132;11.608;2023-11-22T11:53:50;5.70;1.00
827;DHT22;395;48.132;11.608;2023-11-22T11:56:16;5.80;1.00
827;DHT22;395;48.132;11.608;2023-11-22T11:58:47;5.70;1.00
827;DHT22;395;48.132;11.608;2023-11-22T12:01:15;5.80;1.00
827;DHT22;395;48.132;11.608;2023-11-22T12:03:46;5.80;1.00
827;DHT22;395;48.132;11.608;2023-11-22T12:06:16;5.70;1.00
827;DHT22;395;48.132;11.608;2023-11-22T12:08:43;5.40;1.00
827;DHT22;395;48.132;11.608;2023-11-22T12:11:09;5.40;1.00
827;DHT22;395;48.132;11.608;2023-11-22T12:13:37;5.50;1.00
827;DHT22;395;48.132;11.608;2023-11-22T12:16:05;5.60;1.00
827;DHT22;395;48.132;11.608;2023-11-22T12:18:51;5.70;1.00
827;DHT22;395;48.132;11.608;2023-11-22T12:21:17;5.80;1.00
827;DHT22;395;48.132;11.608;2023-11-22T12:23:45;5.90;1.00
827;DHT22;395;48.132;11.608;2023-11-22T12:26:14;5.80;1.00
827;DHT22;395;48.132;11.608;2023-11-22T12:28:41;5.70;1.00
827;DHT22;395;48.132;11.608;2023-11-22T12:31:07;5.80;1.00
827;DHT22;395;48.132;11.608;2023-11-22T12:33:35;5.90;1.00
827;DHT22;395;48.132;11.608;2023-11-22T12:36:02;5.90;1.00
827;DHT22;395;48.132;11.608;2023-11-22T12:38:29;6.00;1.00
827;DHT22;395;48.132;11.608;2023-11-22T12:40:57;5.60;1.00
827;DHT22;395;48.132;11.608;2023-11-22T12:43:23;5.40;1.00
827;DHT22;395;48.132;11.608;2023-11-22T12:46:05;5.50;1.00
827;DHT22;395;48.132;11.608;2023-11-22T12:48:41;5.20;1.00
827;DHT22;395;48.132;11.608;2023-11-22T12:51:17;5.00;1.00
827;DHT22;395;48.132;11.608;2023-11-22T12:53:46;4.90;1.00
827;DHT22;395;48.132;11.608;2023-11-22T12:56:13;4.90;1.00
827;DHT22;395;48.132;11.608;2023-11-22T12:58:39;4.80;1.00
827;DHT22;395;48.132;11.608;2023-11-22T13:01:05;4.90;1.00
827;DHT22;395;48.132;11.608;2023-11-22T13:03:31;4.90;1.00
827;DHT22;395;48.132;11.608;2023-11-22T13:05:57;4.50;1.00
827;DHT22;395;48.132;11.608;2023-11-22T13:08:23;4.10;1.00
827;DHT22;395;48.132;11.608;2023-11-22T13:10:50;4.10;1.00
827;DHT22;395;48.132;11.608;2023-11-22T13:13:22;4.40;1.00
827;DHT22;395;48.132;11.608;2023-11-22T13:15:48;4.70;1.00
827;DHT22;395;48.132;11.608;2023-11-22T13:18:17;4.90;1.00
827;DHT22;395;48.132;11.608;2023-11-22T13:20:44;5.10;1.00
827;DHT22;395;48.132;11.608;2023-11-22T13:23:11;5.10;1.00
827;DHT22;395;48.132;11.608;2023-11-22T13:25:38;4.60;1.00
827;DHT22;395;48.132;11.608;2023-11-22T13:28:05;4.80;1.00
827;DHT22;395;48.132;11.608;2023-11-22T13:30:31;5.00;1.00
827;DHT22;395;48.132;11.608;2023-11-22T13:32:57;4.70;1.00
827;DHT22;395;48.132;11.608;2023-11-22T13:35:28;4.70;1.00
827;DHT22;395;48.132;11.608;2023-11-22T13:38:00;4.80;1.00
827;DHT22;395;48.132;11.608;2023-11-22T13:40:27;4.90;1.00
827;DHT22;395;48.132;11.608;2023-11-22T13:42:57;5.10;1.00
827;DHT22;395;48.132;11.608;2023-11-22T13:45:23;5.20;1.00
827;DHT22;395;48.132;11.608;2023-11-22T13:47:50;5.30;1.00
827;DHT22;395;48.132;11.608;2023-11-22T13:50:19;5.30;1.00
827;DHT22;395;48.132;11.608;2023-11-22T13:52:51;5.40;1.00
827;DHT22;395;48.132;11.608;2023-11-22T13:55:17;5.50;1.00
827;DHT22;395;48.132;11.608;2023-11-22T13:57:50;5.60;1.00
827;DHT22;395;48.132;11.608;2023-11-22T14:00:17;5.70;1.00
827;DHT22;395;48.132;11.608;2023-11-22T14:02:57;5.80;1.00
827;DHT22;395;48.132;11.608;2023-11-22T14:05:29;5.80;1.00
827;DHT22;395;48.132;11.608;2023-11-22T14:07:55;5.90;1.00
827;DHT22;395;48.132;11.608;2023-11-22T14:10:21;5.90;1.00
827;DHT22;395;48.132;11.608;2023-11-22T14:12:51;5.90;1.00
827;DHT22;395;48.132;11.608;2023-11-22T14:15:17;6.00;1.00
827;DHT22;395;48.132;11.608;2023-11-22T14:17:43;5.90;1.00
827;DHT22;395;48.132;11.608;2023-11-22T14:20:10;5.90;1.00
827;DHT22;395;48.132;11.608;2023-11-22T14:22:37;5.80;1.00
827;DHT22;395;48.132;11.608;2023-11-22T14:25:03;5.60;1.00
827;DHT22;395;48.132;11.608;2023-11-22T14:27:33;5.50;1.00
827;DHT22;395;48.132;11.608;2023-11-22T14:29:59;5.60;1.00
827;DHT22;395;48.132;11.608;2023-11-22T14:32:25;5.40;1.00
827;DHT22;395;48.132;11.608;2023-11-22T14:34:51;5.30;1.00
827;DHT22;395;48.132;11.608;2023-11-22T14:37:19;5.30;1.00
827;DHT22;395;48.132;11.608;2023-11-22T14:39:45;5.40;1.00
827;DHT22;395;48.132;11.608;2023-11-22T14:42:10;5.50;1.00
827;DHT22;395;48.132;11.608;2023-11-22T14:44:37;5.30;1.00
827;DHT22;395;48.132;11.608;2023-11-22T14:47:03;5.00;1.00
827;DHT22;395;48.132;11.608;2023-11-22T14:49:32;4.70;1.00
827;DHT22;395;48.132;11.608;2023-11-22T14:51:58;4.80;1.00
827;DHT22;395;48.132;11.608;2023-11-22T14:54:24;5.00;1.00
827;DHT22;395;48.132;11.608;2023-11-22T14:56:49;5.10;1.00
827;DHT22;395;48.132;11.608;2023-11-22T14:59:15;5.10;1.00
827;DHT22;395;48.132;11.608;2023-11-22T15:01:42;5.00;1.00
827;DHT22;395;48.132;11.608;2023-11-22T15:04:09;5.20;1.00
827;DHT22;395;48.132;11.608;2023-11-22T15:06:36;5.20;1.00
827;DHT22;395;48.132;11.608;2023-11-22T15:09:02;5.30;1.00
827;DHT22;395;48.132;11.608;2023-11-22T15:11:36;5.40;1.00
827;DHT22;395;48.132;11.608;2023-11-22T15:14:04;5.30;1.00
827;DHT22;395;48.132;11.608;2023-11-22T15:16:29;5.40;1.00
827;DHT22;395;48.132;11.608;2023-11-22T15:18:57;5.50;1.00
827;DHT22;395;48.132;11.608;2023-11-22T15:21:25;5.50;1.00
827;DHT22;395;48.132;11.608;2023-11-22T15:23:51;5.00;1.00
827;DHT22;395;48.132;11.608;2023-11-22T15:26:17;4.70;1.00
827;DHT22;395;48.132;11.608;2023-11-22T15:28:43;4.70;1.00
827;DHT22;395;48.132;11.608;2023-11-22T15:31:15;4.90;1.00
827;DHT22;395;48.132;11.608;2023-11-22T15:33:41;4.90;1.00
827;DHT22;395;48.132;11.608;2023-11-22T15:36:09;4.80;1.00
827;DHT22;395;48.132;11.608;2023-11-22T15:38:36;4.40;1.00
827;DHT22;395;48.132;11.608;2023-11-22T15:41:02;4.50;1.00
827;DHT22;395;48.132;11.608;2023-11-22T15:43:30;4.70;1.00
827;DHT22;395;48.132;11.608;2023-11-22T15:45:56;4.90;1.00
827;DHT22;395;48.132;11.608;2023-11-22T15:48:23;5.00;1.00
827;DHT22;395;48.132;11.608;2023-11-22T15:50:51;5.00;1.00
827;DHT22;395;48.132;11.608;2023-11-22T15:53:17;4.90;1.00
827;DHT22;395;48.132;11.608;2023-11-22T15:55:43;5.00;1.00
827;DHT22;395;48.132;11.608;2023-11-22T15:58:10;5.10;1.00
827;DHT22;395;48.132;11.608;2023-11-22T16:00:36;5.10;1.00
827;DHT22;395;48.132;11.608;2023-11-22T16:03:02;5.20;1.00
827;DHT22;395;48.132;11.608;2023-11-22T16:05:31;5.30;1.00
827;DHT22;395;48.132;11.608;2023-11-22T16:07:57;5.50;1.00
827;DHT22;395;48.132;11.608;2023-11-22T16:10:23;5.60;1.00
827;DHT22;395;48.132;11.608;2023-11-22T16:12:48;5.60;1.00
827;DHT22;395;48.132;11.608;2023-11-22T16:15:15;5.70;1.00
827;DHT22;395;48.132;11.608;2023-11-22T16:17:41;5.70;1.00
827;DHT22;395;48.132;11.608;2023-11-22T16:20:08;5.70;1.00
827;DHT22;395;48.132;11.608;2023-11-22T16:22:37;5.70;1.00
827;DHT22;395;48.132;11.608;2023-11-22T16:25:10;5.70;1.00
827;DHT22;395;48.132;11.608;2023-11-22T16:27:36;5.70;1.00
827;DHT22;395;48.132;11.608;2023-11-22T16:30:02;5.70;1.00
827;DHT22;395;48.132;11.608;2023-11-22T16:32:29;5.60;1.00
827;DHT22;395;48.132;11.608;2023-11-22T16:34:55;5.40;1.00
827;DHT22;395;48.132;11.608;2023-11-22T16:37:21;5.30;1.00
827;DHT22;395;48.132;11.608;2023-11-22T16:39:47;5.10;1.00
827;DHT22;395;48.132;11.608;2023-11-22T16:42:13;5.00;1.00
827;DHT22;395;48.132;11.608;2023-11-22T16:44:39;4.70;1.00
827;DHT22;395;48.132;11.608;2023-11-22T16:47:09;4.90;1.00
827;DHT22;395;48.132;11.608;2023-11-22T16:49:42;5.10;1.00
827;DHT22;395;48.132;11.608;2023-11-22T16:52:09;5.20;1.00
827;DHT22;395;48.132;11.608;2023-11-22T16:54:38;5.40;1.00